sensor_id;sensor_type;location;lat;lon;timestamp;pressure;altitude;pressure_sealevel;temperature;humidity
26711;BME280;18311;52.754;18.118;2022-08-01T00:02:22;100311.45;;;14.13;100.00
26711;BME280;18311;52.754;18.118;2022-08-01T00:04:57;100313.77;;;14.05;100.00
26711;BME280;18311;52.754;18.118;2022-08-01T00:07:29;100310.11;;;14.06;100.00
26711;BME280;18311;52.754;18.118;2022-08-01T00:10:02;100297.06;;;14.00;100.00
26711;BME280;18311;52.754;18.118;2022-08-01T00:12:33;100305.22;;;13.98;100.00
26711;BME280;18311;52.754;18.118;2022-08-01T00:15:08;100289.94;;;13.99;100.00
26711;BME280;18311;52.754;18.118;2022-08-01T00:17:39;100303.95;;;13.90;100.00
26711;BME280;18311;52.754;18.118;2022-08-01T00:20:13;100298.19;;;13.96;100.00
26711;BME280;18311;52.754;18.118;2022-08-01T00:22:44;100298.31;;;13.94;100.00
26711;BME280;18311;52.754;18.118;2022-08-01T00:25:16;100299.34;;;13.92;100.00
26711;BME280;18311;52.754;18.118;2022-08-01T00:27:47;100298.75;;;13.87;100.00
26711;BME280;18311;52.754;18.118;2022-08-01T00:30:19;100299.73;;;13.86;100.00
26711;BME280;18311;52.754;18.118;2022-08-01T00:32:50;100294.13;;;13.74;100.00
26711;BME280;18311;52.754;18.118;2022-08-01T00:35:22;100304.44;;;13.82;100.00
26711;BME280;18311;52.754;18.118;2022-08-01T00:37:53;100284.73;;;13.82;100.00
26711;BME280;18311;52.754;18.118;2022-08-01T00:40:24;100288.75;;;13.74;100.00
26711;BME280;18311;52.754;18.118;2022-08-01T00:42:58;100290.28;;;13.78;100.00
26711;BME280;18311;52.754;18.118;2022-08-01T00:45:29;100292.59;;;13.70;100.00
26711;BME280;18311;52.754;18.118;2022-08-01T00:48:01;100286.16;;;13.73;100.00
26711;BME280;18311;52.754;18.118;2022-08-01T00:50:33;100295.28;;;13.70;100.00
26711;BME280;18311;52.754;18.118;2022-08-01T00:53:05;100290.27;;;13.64;100.00
26711;BME280;18311;52.754;18.118;2022-08-01T00:55:37;100288.14;;;13.55;100.00
26711;BME280;18311;52.754;18.118;2022-08-01T00:58:08;100289.67;;;13.59;100.00
26711;BME280;18311;52.754;18.118;2022-08-01T01:00:41;100282.77;;;13.55;100.00
26711;BME280;18311;52.754;18.118;2022-08-01T01:03:14;100277.13;;;13.59;100.00
26711;BME280;18311;52.754;18.118;2022-08-01T01:05:59;100287.48;;;13.66;100.00
26711;BME280;18311;52.754;18.118;2022-08-01T01:08:35;100285.07;;;13.61;100.00
26711;BME280;18311;52.754;18.118;2022-08-01T01:11:11;100287.08;;;13.57;100.00
26711;BME280;18311;52.754;18.118;2022-08-01T01:13:44;100282.95;;;13.52;100.00
26711;BME280;18311;52.754;18.118;2022-08-01T01:16:19;100285.63;;;13.52;100.00
26711;BME280;18311;52.754;18.118;2022-08-01T01:19:04;100286.27;;;13.41;100.00
26711;BME280;18311;52.754;18.118;2022-08-01T01:24:52;100285.81;;;13.49;100.00
26711;BME280;18311;52.754;18.118;2022-08-01T01:27:24;100291.91;;;13.36;100.00
26711;BME280;18311;52.754;18.118;2022-08-01T01:29:56;100284.45;;;13.41;100.00
26711;BME280;18311;52.754;18.118;2022-08-01T01:32:43;100284.95;;;13.48;100.00
26711;BME280;18311;52.754;18.118;2022-08-01T01:35:24;100278.22;;;13.41;100.00
26711;BME280;18311;52.754;18.118;2022-08-01T01:38:05;100281.59;;;13.45;100.00
26711;BME280;18311;52.754;18.118;2022-08-01T01:40:37;100277.45;;;13.39;100.00
26711;BME280;18311;52.754;18.118;2022-08-01T01:43:11;100277.89;;;13.31;100.00
26711;BME280;18311;52.754;18.118;2022-08-01T01:45:44;100269.74;;;13.33;100.00
26711;BME280;18311;52.754;18.118;2022-08-01T01:48:19;100270.34;;;13.38;100.00
26711;BME280;18311;52.754;18.118;2022-08-01T01:50:53;100279.00;;;13.27;100.00
26711;BME280;18311;52.754;18.118;2022-08-01T01:53:24;100281.52;;;13.30;100.00
26711;BME280;18311;52.754;18.118;2022-08-01T01:55:57;100275.41;;;13.12;100.00
26711;BME280;18311;52.754;18.118;2022-08-01T01:58:31;100272.00;;;13.25;100.00
26711;BME280;18311;52.754;18.118;2022-08-01T02:01:04;100268.17;;;13.29;100.00
26711;BME280;18311;52.754;18.118;2022-08-01T02:03:39;100261.27;;;13.25;100.00
26711;BME280;18311;52.754;18.118;2022-08-01T02:06:13;100269.03;;;13.29;100.00
26711;BME280;18311;52.754;18.118;2022-08-01T02:08:47;100261.86;;;13.30;100.00
26711;BME280;18311;52.754;18.118;2022-08-01T02:11:22;100261.27;;;13.25;100.00
26711;BME280;18311;52.754;18.118;2022-08-01T02:14:05;100268.43;;;13.24;100.00
26711;BME280;18311;52.754;18.118;2022-08-01T02:16:35;100263.83;;;13.26;100.00
26711;BME280;18311;52.754;18.118;2022-08-01T02:19:08;100267.66;;;13.22;100.00
26711;BME280;18311;52.754;18.118;2022-08-01T02:21:51;100261.09;;;13.12;100.00
26711;BME280;18311;52.754;18.118;2022-08-01T02:24:30;100267.16;;;13.15;100.00
26711;BME280;18311;52.754;18.118;2022-08-01T02:27:01;100261.70;;;13.17;100.00
26711;BME280;18311;52.754;18.118;2022-08-01T02:29:42;100264.21;;;13.20;100.00
26711;BME280;18311;52.754;18.118;2022-08-01T02:32:12;100259.19;;;13.14;100.00
26711;BME280;18311;52.754;18.118;2022-08-01T02:34:46;100261.78;;;13.15;100.00
26711;BME280;18311;52.754;18.118;2022-08-01T02:37:19;100271.06;;;13.10;100.00
26711;BME280;18311;52.754;18.118;2022-08-01T02:39:53;100268.47;;;13.08;100.00
26711;BME280;18311;52.754;18.118;2022-08-01T02:42:26;100266.64;;;13.09;100.00
26711;BME280;18311;52.754;18.118;2022-08-01T02:44:58;100257.30;;;13.00;100.00
26711;BME280;18311;52.754;18.118;2022-08-01T02:47:31;100266.08;;;13.03;100.00
26711;BME280;18311;52.754;18.118;2022-08-01T02:50:03;100259.05;;;13.01;100.00
26711;BME280;18311;52.754;18.118;2022-08-01T02:52:36;100243.80;;;13.01;100.00
26711;BME280;18311;52.754;18.118;2022-08-01T02:55:11;100257.51;;;12.97;100.00
26711;BME280;18311;52.754;18.118;2022-08-01T02:57:44;100247.45;;;13.00;100.00
26711;BME280;18311;52.754;18.118;2022-08-01T03:00:19;100254.19;;;13.08;100.00
26711;BME280;18311;52.754;18.118;2022-08-01T03:02:52;100254.19;;;13.08;100.00
26711;BME280;18311;52.754;18.118;2022-08-01T03:05:26;100250.53;;;13.09;100.00
26711;BME280;18311;52.754;18.118;2022-08-01T03:07:59;100257.56;;;13.11;100.00
26711;BME280;18311;52.754;18.118;2022-08-01T03:10:33;100261.19;;;13.10;100.00
26711;BME280;18311;52.754;18.118;2022-08-01T03:13:08;100256.02;;;13.07;100.00
26711;BME280;18311;52.754;18.118;2022-08-01T03:15:40;100266.33;;;12.99;100.00
26711;BME280;18311;52.754;18.118;2022-08-01T03:18:14;100269.18;;;12.96;100.00
26711;BME280;18311;52.754;18.118;2022-08-01T03:20:46;100266.92;;;13.04;100.00
26711;BME280;18311;52.754;18.118;2022-08-01T03:23:19;100261.47;;;13.06;100.00
26711;BME280;18311;52.754;18.118;2022-08-01T03:25:55;100260.59;;;13.05;100.00
26711;BME280;18311;52.754;18.118;2022-08-01T03:28:27;100254.53;;;13.01;100.00
26711;BME280;18311;52.754;18.118;2022-08-01T03:31:01;100255.91;;;13.09;100.00
26711;BME280;18311;52.754;18.118;2022-08-01T03:33:33;100258.41;;;13.12;100.00
26711;BME280;18311;52.754;18.118;2022-08-01T03:36:05;100255.81;;;13.10;100.00
26711;BME280;18311;52.754;18.118;2022-08-01T03:38:39;100249.42;;;13.13;100.00
26711;BME280;18311;52.754;18.118;2022-08-01T03:41:18;100256.16;;;13.20;100.00
26711;BME280;18311;52.754;18.118;2022-08-01T03:44:02;100255.77;;;13.26;100.00
26711;BME280;18311;52.754;18.118;2022-08-01T03:46:47;100249.38;;;13.29;100.00
26711;BME280;18311;52.754;18.118;2022-08-01T03:49:21;100250.68;;;13.37;100.00
26711;BME280;18311;52.754;18.118;2022-08-01T03:51:53;100254.31;;;13.36;100.00
26711;BME280;18311;52.754;18.118;2022-08-01T03:54:29;100250.20;;;13.45;100.00
26711;BME280;18311;52.754;18.118;2022-08-01T03:57:00;100256.84;;;13.54;100.00
26711;BME280;18311;52.754;18.118;2022-08-01T03:59:34;100251.70;;;13.65;100.00
26711;BME280;18311;52.754;18.118;2022-08-01T04:02:07;100244.81;;;13.75;100.00
26711;BME280;18311;52.754;18.118;2022-08-01T04:04:39;100250.11;;;13.91;100.00
26711;BME280;18311;52.754;18.118;2022-08-01T04:07:29;100258.75;;;13.96;100.00
26711;BME280;18311;52.754;18.118;2022-08-01T04:10:01;100257.49;;;14.02;100.00
26711;BME280;18311;52.754;18.118;2022-08-01T04:12:33;100262.86;;;14.16;100.00
26711;BME280;18311;52.754;18.118;2022-08-01T04:15:06;100261.03;;;14.17;100.00
26711;BME280;18311;52.754;18.118;2022-08-01T04:17:39;100258.70;;;14.40;100.00
26711;BME280;18311;52.754;18.118;2022-08-01T04:20:12;100258.14;;;14.49;100.00
26711;BME280;18311;52.754;18.118;2022-08-01T04:22:44;100260.52;;;14.53;100.00
26711;BME280;18311;52.754;18.118;2022-08-01T04:25:28;100258.05;;;14.50;100.00
26711;BME280;18311;52.754;18.118;2022-08-01T04:28:01;100259.75;;;14.66;100.00
26711;BME280;18311;52.754;18.118;2022-08-01T04:30:38;100268.94;;;14.90;100.00
26711;BME280;18311;52.754;18.118;2022-08-01T04:33:13;100256.90;;;14.96;100.00
26711;BME280;18311;52.754;18.118;2022-08-01T04:35:47;100263.50;;;15.05;100.00
26711;BME280;18311;52.754;18.118;2022-08-01T04:38:23;100262.74;;;15.03;100.00
26711;BME280;18311;52.754;18.118;2022-08-01T04:40:57;100259.39;;;14.99;100.00
26711;BME280;18311;52.754;18.118;2022-08-01T04:43:31;100262.22;;;15.10;100.00
26711;BME280;18311;52.754;18.118;2022-08-01T04:46:02;100266.12;;;15.19;100.00
26711;BME280;18311;52.754;18.118;2022-08-01T04:48:36;100269.85;;;15.44;100.00
26711;BME280;18311;52.754;18.118;2022-08-01T04:51:16;100279.23;;;15.51;100.00
26711;BME280;18311;52.754;18.118;2022-08-01T04:53:51;100268.36;;;15.53;100.00
26711;BME280;18311;52.754;18.118;2022-08-01T04:56:23;100282.29;;;15.72;100.00
26711;BME280;18311;52.754;18.118;2022-08-01T04:58:54;100271.41;;;15.74;100.00
26711;BME280;18311;52.754;18.118;2022-08-01T05:01:49;100271.98;;;15.79;100.00
26711;BME280;18311;52.754;18.118;2022-08-01T05:04:21;100274.36;;;15.96;100.00
26711;BME280;18311;52.754;18.118;2022-08-01T05:06:53;100273.39;;;16.10;100.00
26711;BME280;18311;52.754;18.118;2022-08-01T05:09:25;100271.45;;;16.25;100.00
26711;BME280;18311;52.754;18.118;2022-08-01T05:11:59;100279.20;;;16.30;100.00
26711;BME280;18311;52.754;18.118;2022-08-01T05:14:32;100282.53;;;16.33;100.00
26711;BME280;18311;52.754;18.118;2022-08-01T05:17:05;100275.33;;;16.34;100.00
26711;BME280;18311;52.754;18.118;2022-08-01T05:19:37;100273.34;;;16.49;100.00
26711;BME280;18311;52.754;18.118;2022-08-01T05:22:09;100277.95;;;16.59;100.00
26711;BME280;18311;52.754;18.118;2022-08-01T05:24:43;100272.13;;;16.66;100.00
26711;BME280;18311;52.754;18.118;2022-08-01T05:27:16;100273.80;;;16.79;100.00
26711;BME280;18311;52.754;18.118;2022-08-01T05:29:49;100273.91;;;16.78;100.00
26711;BME280;18311;52.754;18.118;2022-08-01T05:32:20;100278.90;;;16.71;100.00
26711;BME280;18311;52.754;18.118;2022-08-01T05:34:52;100280.50;;;16.87;100.00
26711;BME280;18311;52.754;18.118;2022-08-01T05:37:23;100280.03;;;16.93;100.00
26711;BME280;18311;52.754;18.118;2022-08-01T05:39:54;100278.16;;;17.06;100.00
26711;BME280;18311;52.754;18.118;2022-08-01T05:42:26;100276.78;;;17.01;100.00
26711;BME280;18311;52.754;18.118;2022-08-01T05:44:58;100275.45;;;17.06;100.00
26711;BME280;18311;52.754;18.118;2022-08-01T05:47:29;100270.38;;;17.26;100.00
26711;BME280;18311;52.754;18.118;2022-08-01T05:50:00;100269.11;;;17.43;100.00
26711;BME280;18311;52.754;18.118;2022-08-01T05:52:32;100263.49;;;17.57;100.00
26711;BME280;18311;52.754;18.118;2022-08-01T05:55:04;100268.99;;;17.44;100.00
26711;BME280;18311;52.754;18.118;2022-08-01T05:57:35;100270.02;;;17.54;100.00
26711;BME280;18311;52.754;18.118;2022-08-01T06:00:10;100274.81;;;17.62;100.00
26711;BME280;18311;52.754;18.118;2022-08-01T06:02:43;100263.66;;;17.67;100.00
26711;BME280;18311;52.754;18.118;2022-08-01T06:05:16;100264.09;;;17.49;100.00
26711;BME280;18311;52.754;18.118;2022-08-01T06:07:49;100266.08;;;17.59;100.00
26711;BME280;18311;52.754;18.118;2022-08-01T06:10:20;100269.53;;;17.25;100.00
26711;BME280;18311;52.754;18.118;2022-08-01T06:12:51;100257.23;;;17.57;100.00
26711;BME280;18311;52.754;18.118;2022-08-01T06:15:22;100265.48;;;17.66;100.00
26711;BME280;18311;52.754;18.118;2022-08-01T06:17:55;100262.25;;;17.50;100.00
26711;BME280;18311;52.754;18.118;2022-08-01T06:20:27;100258.26;;;17.78;100.00
26711;BME280;18311;52.754;18.118;2022-08-01T06:22:58;100261.38;;;17.96;100.00
26711;BME280;18311;52.754;18.118;2022-08-01T06:25:32;100258.33;;;17.89;100.00
26711;BME280;18311;52.754;18.118;2022-08-01T06:28:03;100254.70;;;17.78;100.00
26711;BME280;18311;52.754;18.118;2022-08-01T06:30:35;100260.95;;;17.67;100.00
26711;BME280;18311;52.754;18.118;2022-08-01T06:33:08;100254.09;;;17.85;100.00
26711;BME280;18311;52.754;18.118;2022-08-01T06:35:40;100246.03;;;17.97;100.00
26711;BME280;18311;52.754;18.118;2022-08-01T06:38:11;100254.89;;;17.99;100.00
26711;BME280;18311;52.754;18.118;2022-08-01T06:40:43;100256.00;;;18.07;100.00
26711;BME280;18311;52.754;18.118;2022-08-01T06:43:15;100256.35;;;18.03;100.00
26711;BME280;18311;52.754;18.118;2022-08-01T06:45:48;100253.15;;;17.98;100.00
26711;BME280;18311;52.754;18.118;2022-08-01T06:48:20;100257.36;;;18.02;100.00
26711;BME280;18311;52.754;18.118;2022-08-01T06:50:52;100262.02;;;18.11;100.00
26711;BME280;18311;52.754;18.118;2022-08-01T06:53:25;100262.50;;;18.05;100.00
26711;BME280;18311;52.754;18.118;2022-08-01T06:55:57;100267.55;;;18.43;100.00
26711;BME280;18311;52.754;18.118;2022-08-01T06:58:30;100259.46;;;18.21;100.00
26711;BME280;18311;52.754;18.118;2022-08-01T07:01:02;100272.23;;;18.19;100.00
26711;BME280;18311;52.754;18.118;2022-08-01T07:03:36;100275.67;;;18.43;100.00
26711;BME280;18311;52.754;18.118;2022-08-01T07:06:10;100264.94;;;18.76;100.00
26711;BME280;18311;52.754;18.118;2022-08-01T07:08:43;100257.30;;;18.81;100.00
26711;BME280;18311;52.754;18.118;2022-08-01T07:11:16;100260.75;;;18.94;100.00
26711;BME280;18311;52.754;18.118;2022-08-01T07:13:47;100256.73;;;19.10;100.00
26711;BME280;18311;52.754;18.118;2022-08-01T07:16:19;100254.91;;;19.10;100.00
26711;BME280;18311;52.754;18.118;2022-08-01T07:18:50;100243.66;;;19.15;100.00
26711;BME280;18311;52.754;18.118;2022-08-01T07:21:21;100251.52;;;19.29;100.00
26711;BME280;18311;52.754;18.118;2022-08-01T07:23:54;100252.99;;;19.22;100.00
26711;BME280;18311;52.754;18.118;2022-08-01T07:26:26;100241.39;;;19.31;100.00
26711;BME280;18311;52.754;18.118;2022-08-01T07:28:58;100249.23;;;19.34;100.00
26711;BME280;18311;52.754;18.118;2022-08-01T07:31:29;100257.72;;;19.41;100.00
26711;BME280;18311;52.754;18.118;2022-08-01T07:34:01;100246.12;;;19.18;100.00
26711;BME280;18311;52.754;18.118;2022-08-01T07:36:32;100242.52;;;19.50;100.00
26711;BME280;18311;52.754;18.118;2022-08-01T07:39:04;100238.86;;;19.39;100.00
26711;BME280;18311;52.754;18.118;2022-08-01T07:41:35;100241.77;;;19.27;100.00
26711;BME280;18311;52.754;18.118;2022-08-01T07:44:12;100239.38;;;19.12;100.00
26711;BME280;18311;52.754;18.118;2022-08-01T07:46:43;100229.84;;;19.50;100.00
26711;BME280;18311;52.754;18.118;2022-08-01T07:49:14;100234.20;;;19.41;100.00
26711;BME280;18311;52.754;18.118;2022-08-01T07:51:47;100235.64;;;19.46;100.00
26711;BME280;18311;52.754;18.118;2022-08-01T07:54:20;100210.95;;;19.07;100.00
26711;BME280;18311;52.754;18.118;2022-08-01T07:56:55;100233.73;;;19.36;100.00
26711;BME280;18311;52.754;18.118;2022-08-01T07:59:27;100241.11;;;19.34;100.00
26711;BME280;18311;52.754;18.118;2022-08-01T08:01:58;100243.45;;;19.60;100.00
26711;BME280;18311;52.754;18.118;2022-08-01T08:04:30;100240.81;;;19.49;100.00
26711;BME280;18311;52.754;18.118;2022-08-01T08:07:02;100240.22;;;19.66;100.00
26711;BME280;18311;52.754;18.118;2022-08-01T08:09:34;100242.59;;;19.59;100.00
26711;BME280;18311;52.754;18.118;2022-08-01T08:12:07;100239.20;;;19.67;100.00
26711;BME280;18311;52.754;18.118;2022-08-01T08:14:38;100237.05;;;19.61;100.00
26711;BME280;18311;52.754;18.118;2022-08-01T08:17:09;100239.65;;;19.84;100.00
26711;BME280;18311;52.754;18.118;2022-08-01T08:19:41;100244.35;;;19.82;100.00
26711;BME280;18311;52.754;18.118;2022-08-01T08:22:12;100250.50;;;19.84;100.00
26711;BME280;18311;52.754;18.118;2022-08-01T08:24:45;100250.16;;;19.77;100.00
26711;BME280;18311;52.754;18.118;2022-08-01T08:27:17;100257.45;;;19.76;100.00
26711;BME280;18311;52.754;18.118;2022-08-01T08:29:48;100251.84;;;19.57;100.00
26711;BME280;18311;52.754;18.118;2022-08-01T08:32:19;100269.05;;;19.67;100.00
26711;BME280;18311;52.754;18.118;2022-08-01T08:34:51;100270.64;;;19.49;100.00
26711;BME280;18311;52.754;18.118;2022-08-01T08:37:23;100271.76;;;19.67;100.00
26711;BME280;18311;52.754;18.118;2022-08-01T08:39:56;100271.76;;;19.67;100.00
26711;BME280;18311;52.754;18.118;2022-08-01T08:42:27;100264.10;;;19.93;100.00
26711;BME280;18311;52.754;18.118;2022-08-01T08:44:59;100263.25;;;19.93;100.00
26711;BME280;18311;52.754;18.118;2022-08-01T08:47:33;100266.23;;;19.90;100.00
26711;BME280;18311;52.754;18.118;2022-08-01T08:50:06;100262.73;;;19.99;100.00
26711;BME280;18311;52.754;18.118;2022-08-01T08:52:38;100278.35;;;19.86;100.00
26711;BME280;18311;52.754;18.118;2022-08-01T08:55:12;100265.16;;;20.02;100.00
26711;BME280;18311;52.754;18.118;2022-08-01T08:57:45;100260.02;;;19.99;100.00
26711;BME280;18311;52.754;18.118;2022-08-01T09:00:17;100271.32;;;19.83;100.00
26711;BME280;18311;52.754;18.118;2022-08-01T09:02:51;100274.33;;;19.80;100.00
26711;BME280;18311;52.754;18.118;2022-08-01T09:05:24;100277.00;;;19.59;100.00
26711;BME280;18311;52.754;18.118;2022-08-01T09:08:02;100276.09;;;19.91;100.00
26711;BME280;18311;52.754;18.118;2022-08-01T09:10:36;100279.31;;;20.06;100.00
26711;BME280;18311;52.754;18.118;2022-08-01T09:13:12;100275.58;;;20.28;100.00
26711;BME280;18311;52.754;18.118;2022-08-01T09:15:50;100279.14;;;20.28;100.00
26711;BME280;18311;52.754;18.118;2022-08-01T09:18:40;100285.66;;;20.16;100.00
26711;BME280;18311;52.754;18.118;2022-08-01T09:21:19;100275.52;;;20.18;100.00
26711;BME280;18311;52.754;18.118;2022-08-01T09:23:53;100277.31;;;20.29;100.00
26711;BME280;18311;52.754;18.118;2022-08-01T09:26:31;100280.33;;;20.66;100.00
26711;BME280;18311;52.754;18.118;2022-08-01T09:29:05;100272.09;;;20.87;100.00
26711;BME280;18311;52.754;18.118;2022-08-01T09:31:43;100277.25;;;20.90;100.00
26711;BME280;18311;52.754;18.118;2022-08-01T09:34:23;100275.61;;;20.68;100.00
26711;BME280;18311;52.754;18.118;2022-08-01T09:36:57;100273.82;;;20.88;100.00
26711;BME280;18311;52.754;18.118;2022-08-01T09:39:31;100277.25;;;21.00;100.00
26711;BME280;18311;52.754;18.118;2022-08-01T09:42:23;100282.16;;;21.16;100.00
26711;BME280;18311;52.754;18.118;2022-08-01T09:44:57;100274.97;;;20.96;100.00
26711;BME280;18311;52.754;18.118;2022-08-01T09:47:42;100276.60;;;21.47;100.00
26711;BME280;18311;52.754;18.118;2022-08-01T09:50:13;100272.56;;;21.31;100.00
26711;BME280;18311;52.754;18.118;2022-08-01T09:52:53;100269.02;;;21.60;100.00
26711;BME280;18311;52.754;18.118;2022-08-01T09:55:21;100274.70;;;21.08;100.00
26711;BME280;18311;52.754;18.118;2022-08-01T09:57:56;100277.41;;;21.08;100.00
26711;BME280;18311;52.754;18.118;2022-08-01T10:00:29;100286.03;;;21.43;100.00
26711;BME280;18311;52.754;18.118;2022-08-01T10:03:22;100275.59;;;21.28;100.00
26711;BME280;18311;52.754;18.118;2022-08-01T10:05:55;100277.43;;;21.86;100.00
26711;BME280;18311;52.754;18.118;2022-08-01T10:08:28;100269.88;;;21.71;100.00
26711;BME280;18311;52.754;18.118;2022-08-01T10:11:11;100267.24;;;21.98;100.00
26711;BME280;18311;52.754;18.118;2022-08-01T10:13:45;100271.37;;;22.02;100.00
26711;BME280;18311;52.754;18.118;2022-08-01T10:16:17;100258.71;;;22.58;100.00
26711;BME280;18311;52.754;18.118;2022-08-01T10:18:49;100265.01;;;22.59;100.00
26711;BME280;18311;52.754;18.118;2022-08-01T10:21:21;100256.84;;;22.59;100.00
26711;BME280;18311;52.754;18.118;2022-08-01T10:23:59;100252.35;;;23.13;100.00
26711;BME280;18311;52.754;18.118;2022-08-01T10:26:34;100243.39;;;23.39;100.00
26711;BME280;18311;52.754;18.118;2022-08-01T10:29:07;100252.42;;;23.40;100.00
26711;BME280;18311;52.754;18.118;2022-08-01T10:31:41;100253.85;;;22.52;100.00
26711;BME280;18311;52.754;18.118;2022-08-01T10:34:16;100244.90;;;23.15;100.00
26711;BME280;18311;52.754;18.118;2022-08-01T10:36:52;100242.80;;;22.99;100.00
26711;BME280;18311;52.754;18.118;2022-08-01T10:39:25;100251.27;;;23.42;100.00
26711;BME280;18311;52.754;18.118;2022-08-01T10:42:00;100239.86;;;22.93;100.00
26711;BME280;18311;52.754;18.118;2022-08-01T10:44:34;100238.40;;;23.34;100.00
26711;BME280;18311;52.754;18.118;2022-08-01T10:50:23;100233.91;;;23.69;100.00
26711;BME280;18311;52.754;18.118;2022-08-01T10:53:21;100231.60;;;23.56;100.00
26711;BME280;18311;52.754;18.118;2022-08-01T10:56:01;100233.47;;;24.00;100.00
26711;BME280;18311;52.754;18.118;2022-08-01T10:58:37;100234.17;;;24.37;100.00
26711;BME280;18311;52.754;18.118;2022-08-01T11:01:20;100220.80;;;24.60;100.00
26711;BME280;18311;52.754;18.118;2022-08-01T11:04:08;100218.42;;;24.30;100.00
26711;BME280;18311;52.754;18.118;2022-08-01T11:06:46;100210.59;;;24.36;100.00
26711;BME280;18311;52.754;18.118;2022-08-01T11:09:26;100214.42;;;24.51;100.00
26711;BME280;18311;52.754;18.118;2022-08-01T11:12:15;100211.12;;;24.39;100.00
26711;BME280;18311;52.754;18.118;2022-08-01T11:17:46;100223.19;;;25.38;100.00
26711;BME280;18311;52.754;18.118;2022-08-01T11:20:22;100212.94;;;25.57;100.00
26711;BME280;18311;52.754;18.118;2022-08-01T11:28:22;100219.56;;;25.13;100.00
26711;BME280;18311;52.754;18.118;2022-08-01T11:33:48;100213.61;;;25.59;100.00
26711;BME280;18311;52.754;18.118;2022-08-01T11:36:22;100212.59;;;25.52;100.00
26711;BME280;18311;52.754;18.118;2022-08-01T11:41:34;100201.95;;;25.81;100.00
26711;BME280;18311;52.754;18.118;2022-08-01T11:44:12;100206.07;;;25.77;100.00
26711;BME280;18311;52.754;18.118;2022-08-01T11:47:05;100198.84;;;26.01;100.00
26711;BME280;18311;52.754;18.118;2022-08-01T11:49:50;100201.23;;;26.04;100.00
26711;BME280;18311;52.754;18.118;2022-08-01T11:52:28;100202.69;;;25.42;100.00
26711;BME280;18311;52.754;18.118;2022-08-01T11:57:38;100197.10;;;26.08;100.00
26711;BME280;18311;52.754;18.118;2022-08-01T12:00:22;100194.13;;;26.26;100.00
26711;BME280;18311;52.754;18.118;2022-08-01T12:03:01;100196.66;;;26.36;100.00
26711;BME280;18311;52.754;18.118;2022-08-01T12:05:34;100186.19;;;26.79;100.00
26711;BME280;18311;52.754;18.118;2022-08-01T12:08:09;100189.55;;;27.12;100.00
26711;BME280;18311;52.754;18.118;2022-08-01T12:10:48;100187.57;;;26.75;100.00
26711;BME280;18311;52.754;18.118;2022-08-01T12:13:16;100193.45;;;27.18;100.00
26711;BME280;18311;52.754;18.118;2022-08-01T12:15:51;100194.62;;;27.47;100.00
26711;BME280;18311;52.754;18.118;2022-08-01T12:18:25;100191.60;;;26.87;100.00
26711;BME280;18311;52.754;18.118;2022-08-01T12:21:02;100186.61;;;26.91;100.00
26711;BME280;18311;52.754;18.118;2022-08-01T12:23:31;100195.94;;;27.05;100.00
26711;BME280;18311;52.754;18.118;2022-08-01T12:26:02;100183.09;;;27.05;100.00
26711;BME280;18311;52.754;18.118;2022-08-01T12:28:41;100186.81;;;27.12;100.00
26711;BME280;18311;52.754;18.118;2022-08-01T12:31:14;100181.45;;;27.42;100.00
26711;BME280;18311;52.754;18.118;2022-08-01T12:33:45;100182.66;;;26.93;100.00
26711;BME280;18311;52.754;18.118;2022-08-01T12:36:27;100188.02;;;27.10;100.00
26711;BME280;18311;52.754;18.118;2022-08-01T12:38:55;100181.81;;;27.16;100.00
26711;BME280;18311;52.754;18.118;2022-08-01T12:41:28;100185.67;;;27.30;100.00
26711;BME280;18311;52.754;18.118;2022-08-01T12:44:00;100183.94;;;27.06;100.00
26711;BME280;18311;52.754;18.118;2022-08-01T12:46:31;100186.50;;;26.84;100.00
26711;BME280;18311;52.754;18.118;2022-08-01T12:49:03;100183.33;;;26.96;100.00
26711;BME280;18311;52.754;18.118;2022-08-01T12:51:35;100174.36;;;27.25;100.00
26711;BME280;18311;52.754;18.118;2022-08-01T12:54:06;100181.03;;;27.30;100.00
26711;BME280;18311;52.754;18.118;2022-08-01T12:56:40;100182.11;;;27.21;100.00
26711;BME280;18311;52.754;18.118;2022-08-01T12:59:27;100174.18;;;27.26;100.00
26711;BME280;18311;52.754;18.118;2022-08-01T13:02:07;100184.08;;;27.36;100.00
26711;BME280;18311;52.754;18.118;2022-08-01T13:04:33;100175.83;;;27.74;100.00
26711;BME280;18311;52.754;18.118;2022-08-01T13:07:06;100180.00;;;27.31;100.00
26711;BME280;18311;52.754;18.118;2022-08-01T13:09:41;100177.09;;;27.48;100.00
26711;BME280;18311;52.754;18.118;2022-08-01T13:12:10;100176.59;;;27.29;100.00
26711;BME280;18311;52.754;18.118;2022-08-01T13:14:42;100181.07;;;26.99;100.00
26711;BME280;18311;52.754;18.118;2022-08-01T13:17:29;100182.97;;;26.99;100.00
26711;BME280;18311;52.754;18.118;2022-08-01T13:19:47;100172.97;;;26.83;100.00
26711;BME280;18311;52.754;18.118;2022-08-01T13:22:19;100174.12;;;26.88;100.00
26711;BME280;18311;52.754;18.118;2022-08-01T13:24:50;100178.28;;;26.84;100.00
26711;BME280;18311;52.754;18.118;2022-08-01T13:27:22;100177.84;;;26.96;100.00
26711;BME280;18311;52.754;18.118;2022-08-01T13:29:56;100178.33;;;26.99;100.00